Time;durP1;ratioP1;P1;durP2;ratioP2;P2;SDS_P1;SDS_P2;PMS_P1;PMS_P2;Temp;Humidity;BMP_temperature;BMP_pressure;BME280_temperature;BME280_humidity;BME280_pressure;Samples;Min_cycle;Max_cycle;Signal;HPM_P1;HPM_P2
2023/06/03 00:00:56;;;;;;;4.30;3.43;;;16.50;56.50;;;;;;5073451;28;20796;-56
2023/06/03 00:03:24;;;;;;;6.43;3.67;;;16.40;56.60;;;;;;5073476;28;20471;-56
2023/06/03 00:05:50;;;;;;;4.93;3.40;;;16.40;56.70;;;;;;5073397;28;20476;-56
2023/06/03 00:08:17;;;;;;;4.73;3.50;;;16.30;56.80;;;;;;5073492;28;20441;-56
2023/06/03 00:10:44;;;;;;;4.20;3.50;;;16.20;57.00;;;;;;5073347;28;20463;-56
2023/06/03 00:13:10;;;;;;;4.73;3.60;;;16.20;57.00;;;;;;5073438;28;20440;-56
2023/06/03 00:15:37;;;;;;;4.43;3.23;;;16.10;57.20;;;;;;5073280;28;20525;-56
2023/06/03 00:18:05;;;;;;;3.60;3.30;;;16.10;57.30;;;;;;5073270;28;20480;-56
2023/06/03 00:20:36;;;;;;;4.77;3.67;;;16.10;57.50;;;;;;5073270;28;20491;-56
2023/06/03 00:23:03;;;;;;;7.83;3.70;;;16.00;57.70;;;;;;5073250;28;20436;-56
2023/06/03 00:25:31;;;;;;;3.90;2.93;;;16.00;58.00;;;;;;5073972;28;20545;-56
2023/06/03 00:27:58;;;;;;;4.60;3.57;;;15.90;58.00;;;;;;5074007;28;20437;-56
2023/06/03 00:30:24;;;;;;;4.47;3.63;;;15.90;58.10;;;;;;5077017;28;20996;-56
2023/06/03 00:32:51;;;;;;;5.90;3.90;;;16.00;58.30;;;;;;5077201;28;20462;-56
2023/06/03 00:35:18;;;;;;;4.97;3.60;;;15.90;58.40;;;;;;5077132;28;20475;-56
2023/06/03 00:37:46;;;;;;;3.77;3.47;;;15.90;58.50;;;;;;5077137;28;20481;-56
2023/06/03 00:40:13;;;;;;;4.53;3.17;;;15.90;58.40;;;;;;5077007;28;20440;-56
2023/06/03 00:42:39;;;;;;;4.80;3.80;;;15.80;58.50;;;;;;5077027;28;20455;-56
2023/06/03 00:45:07;;;;;;;5.60;3.70;;;15.70;58.40;;;;;;5077872;28;20444;-56
2023/06/03 00:47:34;;;;;;;4.67;2.93;;;15.70;58.50;;;;;;5077099;28;20445;-56
2023/06/03 00:50:01;;;;;;;4.23;3.83;;;15.70;58.60;;;;;;5076826;28;20491;-56
2023/06/03 00:52:28;;;;;;;5.60;3.60;;;15.60;58.70;;;;;;5076869;28;20471;-56
2023/06/03 00:54:57;;;;;;;4.90;3.70;;;15.60;58.90;;;;;;5076553;28;20942;-56
2023/06/03 00:57:25;;;;;;;3.83;3.17;;;15.60;59.00;;;;;;5076245;28;20935;-56
2023/06/03 00:59:51;;;;;;;3.80;3.50;;;15.50;59.00;;;;;;5076649;28;20448;-56
2023/06/03 01:02:19;;;;;;;6.67;4.23;;;15.50;59.00;;;;;;5077219;28;20453;-56
2023/06/03 01:04:48;;;;;;;5.93;3.50;;;15.40;59.20;;;;;;5076665;28;20455;-56
2023/06/03 01:07:21;;;;;;;4.20;3.40;;;15.40;59.10;;;;;;5076529;28;20476;-56
2023/06/03 01:10:05;;;;;;;4.80;3.70;;;15.40;59.30;;;;;;5076520;28;20926;-56
2023/06/03 01:12:38;;;;;;;5.67;3.67;;;15.40;59.50;;;;;;5076149;28;20946;-56
2023/06/03 01:15:09;;;;;;;4.73;3.93;;;15.30;59.60;;;;;;5076448;28;20433;-56
2023/06/03 01:17:45;;;;;;;5.73;4.40;;;15.30;59.70;;;;;;5076366;28;20472;-56
2023/06/03 01:20:12;;;;;;;5.30;4.80;;;15.30;59.90;;;;;;5076367;28;20549;-56
2023/06/03 01:22:41;;;;;;;6.10;4.23;;;15.30;59.90;;;;;;5076284;28;20853;-56
2023/06/03 01:25:11;;;;;;;12.33;5.60;;;15.20;59.90;;;;;;5076193;28;20455;-56
2023/06/03 01:27:41;;;;;;;7.00;4.73;;;15.20;60.00;;;;;;5076204;28;20448;-56
2023/06/03 01:30:11;;;;;;;5.50;5.00;;;15.10;60.30;;;;;;5076248;28;20429;-56
2023/06/03 01:32:38;;;;;;;5.23;4.70;;;15.10;60.70;;;;;;5076126;28;20448;-56
2023/06/03 01:35:07;;;;;;;4.83;4.37;;;15.00;61.00;;;;;;5076077;28;20444;-56
2023/06/03 01:37:34;;;;;;;8.77;4.60;;;15.00;61.30;;;;;;5075596;28;20819;-56
2023/06/03 01:40:02;;;;;;;7.80;5.20;;;15.00;61.20;;;;;;5075262;28;20484;-56
2023/06/03 01:42:30;;;;;;;7.93;5.03;;;14.90;61.60;;;;;;5075934;28;20448;-56
2023/06/03 01:44:58;;;;;;;6.23;5.53;;;14.90;61.90;;;;;;5075869;28;20456;-56
2023/06/03 01:47:25;;;;;;;6.03;4.80;;;14.90;62.00;;;;;;5075722;28;20460;-56
2023/06/03 01:49:52;;;;;;;4.97;4.27;;;14.90;62.10;;;;;;5075930;28;20452;-56
2023/06/03 01:52:18;;;;;;;6.53;5.07;;;14.80;62.10;;;;;;5075739;28;20461;-56
2023/06/03 01:54:45;;;;;;;5.67;4.20;;;14.80;62.10;;;;;;5075403;28;20818;-56
2023/06/03 01:57:12;;;;;;;4.30;3.90;;;14.80;62.30;;;;;;5075679;28;20464;-56
2023/06/03 01:59:40;;;;;;;5.20;4.37;;;14.80;62.30;;;;;;5075664;28;20957;-56
2023/06/03 02:02:07;;;;;;;4.93;4.10;;;14.70;62.30;;;;;;5075796;28;20476;-56
2023/06/03 02:04:34;;;;;;;8.63;4.97;;;14.70;62.60;;;;;;5075728;28;20524;-56
2023/06/03 02:07:01;;;;;;;5.47;3.50;;;14.60;62.40;;;;;;5075865;28;20491;-56
2023/06/03 02:09:29;;;;;;;5.20;4.57;;;14.60;62.60;;;;;;5074470;28;20885;-56
2023/06/03 02:11:56;;;;;;;5.30;4.13;;;14.60;63.00;;;;;;5075207;28;20467;-56
2023/06/03 02:14:23;;;;;;;4.77;4.13;;;14.60;62.70;;;;;;5075358;28;20475;-56
2023/06/03 02:16:52;;;;;;;5.60;4.70;;;14.60;63.00;;;;;;5075251;28;20468;-56
2023/06/03 02:19:20;;;;;;;5.73;4.47;;;14.50;63.20;;;;;;5075190;28;20533;-56
2023/06/03 02:21:48;;;;;;;5.40;4.10;;;14.50;63.60;;;;;;5075200;28;20528;-56
2023/06/03 02:24:15;;;;;;;4.77;4.20;;;14.50;63.40;;;;;;5075163;28;20486;-56
2023/06/03 02:26:49;;;;;;;6.50;4.13;;;14.50;63.40;;;;;;5075952;28;20465;-55
2023/06/03 02:29:16;;;;;;;4.00;3.40;;;14.40;63.20;;;;;;5075132;28;20423;-56
2023/06/03 02:31:43;;;;;;;4.47;4.07;;;14.40;63.40;;;;;;5075070;28;20453;-56
2023/06/03 02:34:11;;;;;;;7.33;4.10;;;14.30;63.00;;;;;;5074583;28;20477;-56
2023/06/03 02:36:38;;;;;;;7.40;4.67;;;14.20;62.90;;;;;;5074872;28;20465;-56
2023/06/03 02:39:07;;;;;;;4.87;3.80;;;14.20;63.00;;;;;;5074798;28;20477;-56
2023/06/03 02:41:34;;;;;;;6.30;4.67;;;14.10;63.20;;;;;;5074396;28;20992;-56
2023/06/03 02:44:00;;;;;;;4.60;4.20;;;14.10;63.70;;;;;;5074976;28;20467;-56
2023/06/03 02:46:27;;;;;;;6.20;4.50;;;14.10;63.60;;;;;;5074799;28;20460;-56
2023/06/03 02:48:54;;;;;;;8.83;4.23;;;14.10;63.80;;;;;;5074349;28;20977;-56
2023/06/03 02:51:22;;;;;;;5.50;4.77;;;14.00;63.90;;;;;;5073854;28;20507;-56
2023/06/03 02:53:49;;;;;;;5.70;4.30;;;14.00;64.20;;;;;;5074608;28;20441;-56
2023/06/03 02:56:16;;;;;;;8.77;4.57;;;13.90;64.30;;;;;;5074430;28;20469;-56
2023/06/03 02:58:43;;;;;;;8.27;5.93;;;14.00;64.70;;;;;;5074225;28;20484;-56
2023/06/03 03:01:09;;;;;;;11.43;5.07;;;13.90;65.00;;;;;;5074397;28;20502;-56
2023/06/03 03:03:36;;;;;;;7.70;4.97;;;13.90;65.40;;;;;;5074916;28;20494;-56
2023/06/03 03:06:03;;;;;;;4.63;4.17;;;13.90;65.50;;;;;;5074174;28;20598;-56
2023/06/03 03:08:32;;;;;;;4.70;4.20;;;13.90;65.20;;;;;;5073954;28;20448;-56
2023/06/03 03:10:58;;;;;;;6.90;4.40;;;13.90;65.30;;;;;;5074138;28;20490;-56
2023/06/03 03:13:25;;;;;;;6.57;4.50;;;13.80;65.20;;;;;;5074311;28;20467;-56
2023/06/03 03:15:52;;;;;;;6.83;4.00;;;13.80;65.40;;;;;;5074078;28;20471;-56
2023/06/03 03:18:18;;;;;;;5.33;4.23;;;13.80;65.30;;;;;;5074072;28;20530;-56
2023/06/03 03:20:45;;;;;;;5.60;5.00;;;13.70;65.20;;;;;;5074175;28;20445;-56
2023/06/03 03:23:13;;;;;;;7.60;4.73;;;13.70;65.40;;;;;;5074322;28;20523;-56
2023/06/03 03:25:41;;;;;;;4.40;3.80;;;13.60;65.70;;;;;;5074075;28;20475;-56
2023/06/03 03:28:08;;;;;;;4.70;4.27;;;13.60;65.90;;;;;;5074077;28;20449;-56
2023/06/03 03:30:37;;;;;;;5.70;4.63;;;13.60;66.30;;;;;;5073961;28;20506;-56
2023/06/03 03:33:04;;;;;;;4.30;3.90;;;13.60;66.50;;;;;;5073769;28;20950;-56
2023/06/03 03:35:32;;;;;;;5.30;4.80;;;13.60;66.70;;;;;;5073727;28;20507;-56
2023/06/03 03:38:02;;;;;;;5.40;4.40;;;13.60;66.70;;;;;;5074026;28;20449;-56
2023/06/03 03:40:30;;;;;;;6.30;4.60;;;13.60;66.80;;;;;;5076094;28;20468;-56
2023/06/03 03:42:59;;;;;;;7.63;4.80;;;13.60;66.80;;;;;;5075851;28;20449;-56
2023/06/03 03:45:29;;;;;;;5.37;4.60;;;13.50;66.70;;;;;;5074721;28;20459;-56
2023/06/03 03:48:01;;;;;;;5.87;4.90;;;13.50;67.00;;;;;;5073527;28;20496;-56
2023/06/03 03:50:39;;;;;;;7.03;5.07;;;13.50;67.20;;;;;;5073692;28;20468;-56
2023/06/03 03:53:07;;;;;;;5.03;4.53;;;13.50;67.40;;;;;;5073594;28;20797;-56
2023/06/03 03:55:39;;;;;;;10.27;4.30;;;13.50;67.60;;;;;;5073274;28;20472;-56
2023/06/03 03:58:21;;;;;;;6.93;5.27;;;13.40;67.90;;;;;;5073420;28;20520;-56
2023/06/03 04:00:48;;;;;;;9.03;5.00;;;13.40;68.40;;;;;;5073177;28;20956;-55
2023/06/03 04:03:17;;;;;;;6.67;4.33;;;13.50;68.50;;;;;;5073067;28;20472;-56
2023/06/03 04:05:45;;;;;;;5.23;4.10;;;13.40;68.40;;;;;;5073346;28;20468;-56
2023/06/03 04:08:20;;;;;;;5.03;4.63;;;13.40;68.40;;;;;;5073365;28;20451;-56
2023/06/03 04:10:47;;;;;;;4.30;3.90;;;13.40;68.40;;;;;;5072854;28;20894;-56
2023/06/03 04:13:18;;;;;;;6.87;4.70;;;13.40;68.50;;;;;;5073311;28;20425;-56
2023/06/03 04:15:45;;;;;;;5.43;4.30;;;13.40;68.80;;;;;;5073223;28;20844;-56
2023/06/03 04:18:13;;;;;;;4.40;4.00;;;13.40;69.80;;;;;;5073228;28;20453;-56
2023/06/03 04:20:44;;;;;;;4.57;4.13;;;13.40;69.30;;;;;;5073252;28;20448;-56
2023/06/03 04:23:14;;;;;;;5.30;4.20;;;13.40;69.40;;;;;;5072912;28;20903;-56
2023/06/03 04:25:43;;;;;;;9.03;5.00;;;13.40;69.60;;;;;;5073174;28;20499;-56
2023/06/03 04:28:10;;;;;;;5.10;4.50;;;13.40;70.10;;;;;;5072843;28;20453;-56
2023/06/03 04:30:38;;;;;;;8.67;4.30;;;13.50;70.40;;;;;;5073174;28;20518;-56
2023/06/03 04:33:05;;;;;;;5.20;4.63;;;13.50;70.60;;;;;;5073164;28;20448;-56
2023/06/03 04:35:32;;;;;;;5.23;4.73;;;13.50;71.00;;;;;;5073081;28;20483;-56
2023/06/03 04:37:59;;;;;;;6.43;4.90;;;13.60;71.50;;;;;;5073016;28;20449;-56
2023/06/03 04:40:26;;;;;;;6.97;5.10;;;13.60;71.90;;;;;;5072974;28;20575;-56
2023/06/03 04:42:53;;;;;;;5.87;4.57;;;13.60;72.30;;;;;;5072965;28;20448;-56
2023/06/03 04:45:23;;;;;;;8.50;4.43;;;13.70;72.40;;;;;;5072921;28;20544;-56
2023/06/03 04:47:52;;;;;;;9.70;5.23;;;13.80;72.60;;;;;;5073815;28;20510;-56
2023/06/03 04:50:20;;;;;;;5.80;4.77;;;13.80;73.10;;;;;;5072938;28;20441;-56
2023/06/03 04:52:48;;;;;;;6.17;5.03;;;13.90;74.00;;;;;;5073186;28;20484;-56
2023/06/03 04:55:15;;;;;;;11.23;5.70;;;13.90;74.40;;;;;;5072892;28;20824;-56
2023/06/03 04:57:45;;;;;;;9.90;5.10;;;14.00;74.80;;;;;;5072871;28;20452;-56
2023/06/03 05:00:16;;;;;;;5.60;4.90;;;14.00;75.40;;;;;;5072909;28;20464;-56
2023/06/03 05:02:44;;;;;;;9.00;5.50;;;14.10;75.40;;;;;;5072958;28;20429;-56
2023/06/03 05:05:12;;;;;;;7.37;5.70;;;14.10;75.60;;;;;;5072852;28;20448;-56
2023/06/03 05:07:39;;;;;;;6.90;4.30;;;14.20;75.80;;;;;;5072916;28;20475;-56
2023/06/03 05:10:07;;;;;;;5.80;4.47;;;14.30;75.90;;;;;;5073808;28;20463;-56
2023/06/03 05:12:34;;;;;;;7.60;5.60;;;14.30;76.30;;;;;;5073389;28;20540;-56
2023/06/03 05:15:00;;;;;;;6.30;4.07;;;14.40;76.60;;;;;;5073863;28;20449;-56
2023/06/03 05:17:27;;;;;;;8.37;5.40;;;14.50;76.60;;;;;;5076665;28;20498;-56
2023/06/03 05:19:54;;;;;;;12.17;6.00;;;14.50;76.90;;;;;;5076180;28;21009;-56
2023/06/03 05:22:22;;;;;;;9.37;5.20;;;14.60;77.30;;;;;;5076388;28;20448;-56
2023/06/03 05:24:48;;;;;;;10.03;5.47;;;14.70;77.80;;;;;;5076466;28;20448;-56
2023/06/03 05:27:15;;;;;;;8.37;5.53;;;14.70;78.00;;;;;;5076557;28;20468;-56
2023/06/03 05:29:42;;;;;;;10.43;5.67;;;14.80;77.90;;;;;;5075936;28;20938;-56
2023/06/03 05:32:09;;;;;;;7.00;5.43;;;14.80;78.10;;;;;;5075940;28;20837;-56
2023/06/03 05:34:35;;;;;;;6.83;5.23;;;14.90;78.60;;;;;;5076234;28;20444;-56
2023/06/03 05:37:02;;;;;;;7.93;4.43;;;15.00;78.50;;;;;;5076067;28;20469;-56
2023/06/03 05:39:31;;;;;;;8.10;5.03;;;15.10;78.20;;;;;;5076050;28;20890;-56
2023/06/03 05:41:57;;;;;;;9.27;5.50;;;15.10;78.20;;;;;;5076088;28;20445;-56
2023/06/03 05:44:24;;;;;;;7.40;4.87;;;15.20;78.40;;;;;;5075706;28;20946;-56
2023/06/03 05:46:51;;;;;;;6.87;4.87;;;15.30;78.00;;;;;;5064045;28;20474;-56
2023/06/03 05:49:17;;;;;;;5.87;4.50;;;15.40;78.30;;;;;;5055800;28;20479;-56
2023/06/03 05:51:44;;;;;;;5.30;4.10;;;15.50;77.60;;;;;;5055865;28;20449;-56
2023/06/03 05:54:10;;;;;;;7.73;4.40;;;15.60;77.30;;;;;;5056122;28;20453;-56
2023/06/03 05:56:38;;;;;;;5.80;4.57;;;15.70;77.20;;;;;;5055838;28;20468;-56
2023/06/03 05:59:05;;;;;;;6.57;4.53;;;15.80;77.30;;;;;;5055582;28;20477;-56
2023/06/03 06:01:34;;;;;;;11.63;4.20;;;15.90;76.60;;;;;;5055278;28;20963;-56
2023/06/03 06:04:00;;;;;;;5.90;4.93;;;16.00;76.70;;;;;;5055501;28;20457;-56
2023/06/03 06:06:27;;;;;;;5.80;4.27;;;16.10;76.50;;;;;;5055490;28;20466;-56
2023/06/03 06:08:54;;;;;;;5.33;4.30;;;16.20;76.20;;;;;;5055762;28;20446;-56
2023/06/03 06:11:21;;;;;;;5.80;3.80;;;16.30;75.20;;;;;;5055134;28;20968;-56
2023/06/03 06:13:49;;;;;;;5.33;3.60;;;16.40;74.50;;;;;;5055362;28;20450;-56
2023/06/03 06:16:16;;;;;;;6.90;3.30;;;16.50;73.50;;;;;;5054995;28;20469;-56
2023/06/03 06:18:43;;;;;;;8.07;3.70;;;16.60;73.10;;;;;;5055157;28;20449;-56
2023/06/03 06:21:10;;;;;;;8.90;3.70;;;16.70;72.00;;;;;;5055272;28;20554;-56
2023/06/03 06:23:37;;;;;;;5.20;3.00;;;16.80;71.30;;;;;;5055227;28;20445;-56
2023/06/03 06:26:03;;;;;;;2.70;2.20;;;17.00;70.30;;;;;;5055743;28;20479;-56
2023/06/03 06:28:32;;;;;;;5.20;2.57;;;17.10;68.50;;;;;;5055423;28;20445;-56
2023/06/03 06:31:04;;;;;;;5.50;3.33;;;17.20;66.90;;;;;;5055106;28;20864;-56
2023/06/03 06:33:31;;;;;;;3.07;2.00;;;17.40;66.10;;;;;;5055618;28;20513;-56
2023/06/03 06:35:58;;;;;;;4.30;2.40;;;17.50;65.30;;;;;;5054970;28;20472;-56
2023/06/03 06:38:24;;;;;;;3.37;2.00;;;17.70;63.80;;;;;;5054645;28;20970;-56
2023/06/03 06:40:51;;;;;;;6.43;2.63;;;17.80;62.50;;;;;;5054830;28;20485;-56
2023/06/03 06:43:21;;;;;;;3.57;2.20;;;18.00;60.80;;;;;;5054787;28;20454;-56
2023/06/03 06:45:48;;;;;;;4.20;2.40;;;18.20;59.50;;;;;;5054665;28;20470;-56
2023/06/03 06:48:16;;;;;;;4.77;2.70;;;18.30;59.70;;;;;;5054758;28;20454;-56
2023/06/03 06:50:47;;;;;;;2.47;2.00;;;18.50;59.10;;;;;;5054645;28;20445;-56
2023/06/03 06:53:14;;;;;;;4.70;2.30;;;18.70;57.70;;;;;;5054715;28;20438;-56
2023/06/03 06:55:50;;;;;;;3.57;1.57;;;18.80;56.90;;;;;;5054559;28;20835;-56
2023/06/03 06:58:17;;;;;;;3.23;1.93;;;19.00;55.50;;;;;;5054618;28;20436;-56
2023/06/03 07:00:44;;;;;;;7.93;1.73;;;19.20;54.50;;;;;;5054114;28;21007;-56
2023/06/03 07:03:14;;;;;;;2.33;1.50;;;19.40;53.40;;;;;;5054431;28;20487;-56
2023/06/03 07:05:42;;;;;;;9.60;2.00;;;19.60;53.40;;;;;;5063046;28;20538;-56
2023/06/03 07:08:09;;;;;;;3.43;1.60;;;19.80;53.30;;;;;;5061157;28;20450;-56
2023/06/03 07:10:36;;;;;;;2.10;1.73;;;20.00;52.60;;;;;;5057233;28;20958;-56
2023/06/03 07:13:03;;;;;;;6.20;2.03;;;20.20;50.30;;;;;;5053971;28;20993;-56
2023/06/03 07:15:30;;;;;;;3.57;2.00;;;20.40;49.20;;;;;;5054053;28;20469;-56
2023/06/03 07:17:58;;;;;;;2.97;1.50;;;20.60;48.80;;;;;;5054109;28;20441;-56
2023/06/03 07:20:31;;;;;;;1.90;1.60;;;20.80;48.20;;;;;;5053940;28;20477;-57
2023/06/03 07:22:59;;;;;;;1.77;1.67;;;21.00;47.60;;;;;;5054100;28;20434;-56
2023/06/03 07:25:36;;;;;;;2.50;1.77;;;21.20;47.70;;;;;;5053932;28;20454;-56
2023/06/03 07:28:05;;;;;;;5.50;2.03;;;21.50;48.00;;;;;;5067430;28;20441;-56
2023/06/03 07:30:35;;;;;;;3.90;1.80;;;21.60;47.90;;;;;;5073798;28;20437;-57
2023/06/03 07:33:05;;;;;;;2.67;1.80;;;21.80;46.20;;;;;;5073773;28;21000;-57
2023/06/03 07:35:33;;;;;;;1.87;1.57;;;22.00;46.20;;;;;;5065760;28;21025;-56
2023/06/03 07:38:01;;;;;;;2.47;1.60;;;22.20;45.50;;;;;;5060627;28;20938;-57
2023/06/03 07:40:41;;;;;;;5.23;1.43;;;22.40;44.90;;;;;;5058144;28;20477;-57
2023/06/03 07:43:08;;;;;;;2.60;1.90;;;22.60;44.30;;;;;;5053475;28;20426;-56
2023/06/03 07:45:35;;;;;;;4.77;2.40;;;22.80;44.00;;;;;;5053649;28;20466;-57
2023/06/03 07:48:02;;;;;;;6.50;2.53;;;22.90;44.50;;;;;;5053675;28;20496;-56
2023/06/03 07:50:30;;;;;;;5.10;2.10;;;23.10;44.20;;;;;;5053616;28;20433;-56
2023/06/03 07:53:01;;;;;;;4.60;2.07;;;23.30;43.40;;;;;;5053194;28;20852;-57
2023/06/03 07:55:33;;;;;;;2.10;1.47;;;23.60;43.60;;;;;;5053570;28;20495;-57
2023/06/03 07:57:59;;;;;;;5.03;2.30;;;23.80;43.00;;;;;;5053653;28;20433;-57
2023/06/03 08:00:26;;;;;;;5.13;2.17;;;23.90;42.50;;;;;;5054637;28;20481;-56
2023/06/03 08:02:53;;;;;;;3.83;1.87;;;24.10;42.60;;;;;;5053549;28;20449;-57
2023/06/03 08:05:31;;;;;;;2.70;1.93;;;24.30;42.90;;;;;;5053320;28;20954;-57
2023/06/03 08:07:57;;;;;;;5.80;2.00;;;24.50;41.70;;;;;;5053375;28;20441;-56
2023/06/03 08:10:27;;;;;;;3.40;1.40;;;24.60;42.00;;;;;;5053358;28;20442;-56
2023/06/03 08:12:53;;;;;;;3.27;2.13;;;24.80;41.50;;;;;;5053217;28;20522;-56
2023/06/03 08:15:31;;;;;;;4.50;2.20;;;24.90;41.50;;;;;;5052901;28;20955;-56
2023/06/03 08:17:58;;;;;;;4.83;2.50;;;25.10;41.20;;;;;;5053312;28;20440;-56
2023/06/03 08:20:26;;;;;;;3.00;2.00;;;25.30;40.10;;;;;;5053072;28;20481;-56
2023/06/03 08:22:54;;;;;;;4.87;2.00;;;25.50;40.00;;;;;;5053057;28;20445;-56
2023/06/03 08:25:20;;;;;;;3.40;1.77;;;25.70;39.20;;;;;;5053156;28;20460;-56
2023/06/03 08:27:49;;;;;;;3.50;1.73;;;25.80;38.70;;;;;;5052885;28;20790;-56
2023/06/03 08:30:17;;;;;;;4.47;2.40;;;26.00;38.40;;;;;;5052683;28;20453;-56
2023/06/03 08:32:44;;;;;;;5.50;1.70;;;26.20;37.80;;;;;;5052820;28;20970;-56
2023/06/03 08:35:12;;;;;;;4.47;2.40;;;26.30;36.70;;;;;;5052689;28;21013;-56
2023/06/03 08:37:39;;;;;;;2.63;1.73;;;26.40;36.70;;;;;;5053120;28;20449;-56
2023/06/03 08:40:08;;;;;;;4.57;1.90;;;26.60;37.50;;;;;;5052936;28;20473;-56
2023/06/03 08:42:40;;;;;;;1.80;1.30;;;26.70;36.10;;;;;;5052977;28;20499;-56
2023/06/03 08:45:10;;;;;;;2.63;1.50;;;26.80;35.00;;;;;;5052805;28;20497;-56
2023/06/03 08:47:57;;;;;;;3.10;1.60;;;27.00;34.30;;;;;;5053032;28;20450;-56
2023/06/03 08:50:24;;;;;;;1.93;1.43;;;27.10;34.60;;;;;;5056175;28;20488;-56
2023/06/03 08:52:53;;;;;;;3.40;1.40;;;27.20;34.60;;;;;;5056621;28;20952;-56
2023/06/03 08:55:21;;;;;;;6.63;1.97;;;27.40;34.40;;;;;;5056820;28;20445;-56
2023/06/03 08:57:52;;;;;;;3.37;1.70;;;27.50;34.00;;;;;;5056820;28;20454;-56
2023/06/03 09:00:23;;;;;;;6.00;1.43;;;27.70;33.30;;;;;;5056744;28;20469;-56
2023/06/03 09:02:51;;;;;;;4.40;1.40;;;27.80;33.50;;;;;;5056406;28;20434;-56
2023/06/03 09:05:19;;;;;;;6.30;2.60;;;28.10;33.90;;;;;;5056646;28;20852;-56
2023/06/03 09:07:47;;;;;;;5.70;2.03;;;28.20;32.40;;;;;;5056666;28;20454;-56
2023/06/03 09:10:16;;;;;;;5.90;2.00;;;28.40;32.10;;;;;;5056577;28;20448;-56
2023/06/03 09:12:44;;;;;;;3.53;1.50;;;28.50;32.20;;;;;;5056215;28;20464;-56
2023/06/03 09:15:14;;;;;;;5.30;1.93;;;28.70;32.50;;;;;;5056119;28;20997;-56
2023/06/03 09:17:42;;;;;;;2.83;1.73;;;28.90;31.30;;;;;;5056420;28;20468;-56
2023/06/03 09:20:10;;;;;;;2.87;1.67;;;29.10;31.10;;;;;;5055996;28;20854;-57
2023/06/03 09:22:38;;;;;;;3.33;1.33;;;29.20;31.10;;;;;;5056558;28;20453;-56
2023/06/03 09:25:06;;;;;;;1.67;1.50;;;29.40;31.00;;;;;;5056788;28;20445;-56
2023/06/03 09:27:33;;;;;;;3.27;1.83;;;29.50;29.80;;;;;;5056039;28;20480;-57
2023/06/03 09:30:00;;;;;;;2.10;1.30;;;29.60;29.20;;;;;;5056132;28;20445;-56
2023/06/03 09:32:27;;;;;;;2.23;1.80;;;29.60;29.20;;;;;;5056114;28;20445;-57
2023/06/03 09:34:56;;;;;;;3.93;1.63;;;29.80;29.30;;;;;;5056188;28;20445;-56
2023/06/03 09:37:23;;;;;;;7.77;1.87;;;29.90;29.10;;;;;;5056918;28;20469;-56
2023/06/03 09:39:50;;;;;;;5.87;1.83;;;29.90;28.70;;;;;;5055784;28;20943;-56
2023/06/03 09:42:16;;;;;;;7.20;2.00;;;30.00;28.60;;;;;;5055935;28;20441;-56
2023/06/03 09:44:45;;;;;;;6.30;2.20;;;30.20;28.60;;;;;;5056234;28;20452;-57
2023/06/03 09:47:13;;;;;;;2.70;1.70;;;30.30;28.70;;;;;;5056066;28;20475;-56
2023/06/03 09:49:40;;;;;;;3.47;1.83;;;30.50;27.90;;;;;;5055888;28;20452;-56
2023/06/03 09:52:10;;;;;;;3.47;1.80;;;30.70;28.00;;;;;;5055905;28;20448;-57
2023/06/03 09:54:37;;;;;;;3.77;2.10;;;30.90;27.70;;;;;;5055763;28;20892;-57
2023/06/03 09:57:12;;;;;;;2.90;1.67;;;31.10;27.20;;;;;;5055825;28;20496;-57
2023/06/03 09:59:41;;;;;;;7.13;1.80;;;31.40;27.00;;;;;;5055942;28;20452;-57
2023/06/03 10:02:11;;;;;;;2.57;2.13;;;31.60;26.70;;;;;;5054963;28;20489;-56
2023/06/03 10:04:39;;;;;;;5.20;2.07;;;31.90;26.60;;;;;;5055604;28;20480;-57
2023/06/03 10:07:13;;;;;;;4.40;2.00;;;32.20;26.60;;;;;;5055163;28;20986;-57
2023/06/03 10:09:41;;;;;;;5.63;1.60;;;32.50;26.40;;;;;;5055471;28;20441;-57
2023/06/03 10:12:10;;;;;;;6.43;2.10;;;32.70;25.60;;;;;;5055706;28;20461;-56
2023/06/03 10:14:45;;;;;;;4.37;1.83;;;33.00;23.10;;;;;;5055457;28;20547;-56
2023/06/03 10:17:13;;;;;;;6.23;2.10;;;32.90;22.50;;;;;;5055472;28;20473;-56
2023/06/03 10:19:41;;;;;;;4.87;2.23;;;32.80;23.30;;;;;;5055300;28;20444;-56
2023/06/03 10:22:10;;;;;;;3.60;1.70;;;32.70;24.10;;;;;;5055286;28;20488;-56
2023/06/03 10:24:39;;;;;;;2.47;1.40;;;32.70;24.20;;;;;;5055331;28;20830;-56
2023/06/03 10:27:07;;;;;;;3.00;2.30;;;32.80;23.10;;;;;;5055194;28;20460;-56
2023/06/03 10:29:34;;;;;;;4.43;2.30;;;33.30;22.70;;;;;;5055111;28;20445;-56
2023/06/03 10:32:02;;;;;;;2.50;2.00;;;33.40;21.80;;;;;;5055110;28;20441;-56
2023/06/03 10:34:31;;;;;;;6.30;1.90;;;33.40;21.90;;;;;;5055020;28;20552;-56
2023/06/03 10:37:01;;;;;;;4.03;2.27;;;33.60;21.80;;;;;;5054584;28;20974;-56
2023/06/03 10:39:30;;;;;;;6.33;2.10;;;33.90;21.20;;;;;;5054916;28;20493;-56
2023/06/03 10:41:59;;;;;;;3.90;2.20;;;34.20;21.80;;;;;;5054596;28;21006;-56
2023/06/03 10:44:26;;;;;;;4.10;2.10;;;34.50;20.40;;;;;;5054894;28;20445;-56
2023/06/03 10:47:00;;;;;;;2.87;1.80;;;34.90;21.10;;;;;;5054800;28;20472;-56
2023/06/03 10:49:31;;;;;;;3.87;2.17;;;35.20;20.30;;;;;;5054735;28;20445;-56
2023/06/03 10:52:12;;;;;;;3.70;2.07;;;35.60;19.60;;;;;;5054755;28;20437;-56
2023/06/03 10:54:53;;;;;;;3.33;2.00;;;35.80;19.30;;;;;;5054845;28;20425;-56
2023/06/03 10:57:26;;;;;;;5.20;2.07;;;36.30;19.50;;;;;;5054490;28;21032;-56
2023/06/03 10:59:52;;;;;;;5.47;2.07;;;36.80;18.40;;;;;;5054972;28;20813;-56
2023/06/03 11:02:20;;;;;;;3.30;1.90;;;37.20;19.50;;;;;;5055976;28;20222;-56
2023/06/03 11:04:47;;;;;;;2.72;2.33;;;37.70;19.50;;;;;;5054744;28;20293;-56
2023/06/03 11:07:44;;;;;;;4.50;2.00;;;38.30;19.20;;;;;;5054644;28;20222;-56
2023/06/03 11:10:45;;;;;;;3.10;1.58;;;39.00;18.80;;;;;;5054477;28;20249;-56
2023/06/03 11:13:39;;;;;;;2.00;1.60;;;39.50;18.30;;;;;;5053585;28;20186;-57
2023/06/03 11:16:05;;;;;;;2.90;1.50;;;40.00;18.20;;;;;;5054047;28;20720;-57
2023/06/03 11:18:32;;;;;;;3.63;1.92;;;40.30;17.20;;;;;;5054304;28;20203;-57
2023/06/03 11:20:59;;;;;;;2.47;2.13;;;40.70;16.80;;;;;;5054195;28;20253;-57
2023/06/03 11:23:43;;;;;;;4.80;1.70;;;40.90;16.60;;;;;;5054138;28;20209;-56
2023/06/03 11:26:33;;;;;;;4.53;2.00;;;41.10;16.60;;;;;;5054208;28;20223;-56
2023/06/03 11:29:01;;;;;;;5.63;2.10;;;41.40;16.70;;;;;;5054103;28;20282;-57
2023/06/03 11:31:28;;;;;;;12.45;1.95;;;41.70;16.60;;;;;;5053728;28;20677;-57
2023/06/03 11:34:25;;;;;;;4.18;1.88;;;42.10;15.80;;;;;;5054118;28;20302;-57
2023/06/03 11:36:52;;;;;;;5.65;1.83;;;42.40;15.60;;;;;;5054019;28;20227;-57
2023/06/03 11:39:19;;;;;;;4.03;2.00;;;42.80;15.60;;;;;;5053563;28;20707;-57
2023/06/03 11:42:10;;;;;;;4.97;1.77;;;43.00;15.20;;;;;;5053922;28;20245;-57
2023/06/03 11:44:39;;;;;;;3.85;1.80;;;43.10;15.40;;;;;;5054089;28;20245;-57
2023/06/03 11:47:06;;;;;;;6.40;1.63;;;43.40;14.90;;;;;;5053726;28;20229;-57
2023/06/03 11:49:38;;;;;;;3.05;1.40;;;43.60;15.10;;;;;;5053691;28;20237;-57
2023/06/03 11:52:07;;;;;;;3.03;1.85;;;43.80;14.30;;;;;;5053678;28;20209;-57
2023/06/03 11:54:34;;;;;;;1.92;1.70;;;43.90;14.90;;;;;;5053578;28;20202;-57
2023/06/03 11:57:03;;;;;;;1.98;1.60;;;44.00;14.60;;;;;;5053581;28;20607;-57
2023/06/03 11:59:34;;;;;;;2.50;1.60;;;44.20;14.30;;;;;;5053728;28;20202;-57
2023/06/03 12:02:03;;;;;;;3.05;1.52;;;44.40;14.20;;;;;;5054006;28;20218;-57
2023/06/03 12:04:30;;;;;;;1.88;1.50;;;44.50;14.30;;;;;;5053741;28;20203;-57
2023/06/03 12:06:58;;;;;;;5.35;2.03;;;44.70;14.20;;;;;;5053441;28;20233;-57
2023/06/03 12:09:26;;;;;;;3.53;1.52;;;44.90;14.30;;;;;;5053236;28;20723;-57
2023/06/03 12:11:54;;;;;;;2.65;1.55;;;45.00;14.20;;;;;;5053113;28;20257;-57
2023/06/03 12:14:26;;;;;;;2.58;1.63;;;45.20;13.90;;;;;;5053467;28;20211;-57
2023/06/03 12:16:56;;;;;;;2.35;1.92;;;45.40;14.20;;;;;;5053950;28;20222;-57
2023/06/03 12:19:23;;;;;;;3.65;1.85;;;45.50;13.70;;;;;;5053617;28;20687;-57
2023/06/03 12:21:57;;;;;;;3.40;1.67;;;45.70;13.60;;;;;;5053546;28;20221;-57
2023/06/03 12:24:29;;;;;;;2.53;1.88;;;45.90;13.50;;;;;;5053514;28;20245;-57
2023/06/03 12:26:57;;;;;;;4.70;2.05;;;46.00;13.30;;;;;;5053527;28;20222;-57
2023/06/03 12:29:24;;;;;;;3.70;1.73;;;46.20;13.00;;;;;;5053757;28;20206;-57
2023/06/03 12:32:02;;;;;;;3.25;1.55;;;46.40;13.10;;;;;;5053803;28;20664;-57
2023/06/03 12:34:34;;;;;;;1.98;1.27;;;46.40;12.90;;;;;;5054226;28;20210;-57
2023/06/03 12:37:02;;;;;;;2.83;1.63;;;46.60;12.80;;;;;;5053704;28;20222;-57
2023/06/03 12:39:48;;;;;;;4.55;1.70;;;46.60;12.70;;;;;;5053757;28;20581;-57
2023/06/03 12:42:16;;;;;;;2.67;1.40;;;46.90;12.90;;;;;;5053085;28;20237;-57
2023/06/03 12:44:48;;;;;;;4.05;1.73;;;47.00;12.70;;;;;;5052782;28;20206;-57
2023/06/03 12:47:18;;;;;;;2.95;1.30;;;47.20;12.60;;;;;;5052946;28;20250;-57
2023/06/03 12:49:45;;;;;;;1.85;1.27;;;47.20;12.50;;;;;;5053250;28;20203;-57
2023/06/03 12:52:15;;;;;;;5.43;1.88;;;47.20;12.00;;;;;;5052963;28;20225;-57
2023/06/03 12:54:42;;;;;;;2.85;1.55;;;47.30;12.20;;;;;;5052978;28;20248;-57